sensor_id;sensor_type;location;lat;lon;timestamp;pressure;altitude;pressure_sealevel;temperature;humidity
43824;BME280;29470;53.550;9.926;2023-07-08T00:00:40;101785.25;;;21.21;53.29
43824;BME280;29470;53.550;9.926;2023-07-08T00:05:44;101778.59;;;20.87;54.35
43824;BME280;29470;53.550;9.926;2023-07-08T00:10:47;101771.84;;;20.94;53.91
43824;BME280;29470;53.550;9.926;2023-07-08T00:15:52;101769.06;;;20.71;54.42
43824;BME280;29470;53.550;9.926;2023-07-08T00:20:54;101763.00;;;20.72;54.88
43824;BME280;29470;53.550;9.926;2023-07-08T00:25:57;101759.34;;;21.09;53.57
43824;BME280;29470;53.550;9.926;2023-07-08T00:31:02;101753.69;;;21.00;54.22
43824;BME280;29470;53.550;9.926;2023-07-08T00:36:09;101754.28;;;20.73;54.57
43824;BME280;29470;53.550;9.926;2023-07-08T00:41:18;101757.94;;;20.77;55.21
43824;BME280;29470;53.550;9.926;2023-07-08T00:46:37;101748.19;;;20.94;54.57
43824;BME280;29470;53.550;9.926;2023-07-08T00:51:43;101756.97;;;20.74;55.52
43824;BME280;29470;53.550;9.926;2023-07-08T00:56:49;101743.22;;;20.60;55.57
43824;BME280;29470;53.550;9.926;2023-07-08T01:01:57;101741.38;;;20.78;55.24
43824;BME280;29470;53.550;9.926;2023-07-08T01:07:03;101744.41;;;20.67;55.56
43824;BME280;29470;53.550;9.926;2023-07-08T01:12:12;101741.22;;;20.55;55.76
43824;BME280;29470;53.550;9.926;2023-07-08T01:17:17;101741.22;;;20.55;55.67
43824;BME280;29470;53.550;9.926;2023-07-08T01:22:21;101742.38;;;20.61;55.72
43824;BME280;29470;53.550;9.926;2023-07-08T01:27:26;101738.38;;;20.50;55.84
43824;BME280;29470;53.550;9.926;2023-07-08T01:32:29;101734.59;;;20.24;56.27
43824;BME280;29470;53.550;9.926;2023-07-08T01:37:37;101725.53;;;19.97;57.04
43824;BME280;29470;53.550;9.926;2023-07-08T01:42:40;101721.97;;;20.15;56.70
43824;BME280;29470;53.550;9.926;2023-07-08T01:47:48;101719.66;;;20.03;56.98
43824;BME280;29470;53.550;9.926;2023-07-08T01:52:57;101716.56;;;20.12;56.56
43824;BME280;29470;53.550;9.926;2023-07-08T01:58:00;101712.97;;;20.10;56.38
43824;BME280;29470;53.550;9.926;2023-07-08T02:03:03;101718.19;;;19.90;57.10
43824;BME280;29470;53.550;9.926;2023-07-08T02:08:07;101720.81;;;19.90;57.69
43824;BME280;29470;53.550;9.926;2023-07-08T02:13:10;101714.75;;;19.91;57.75
43824;BME280;29470;53.550;9.926;2023-07-08T02:18:13;101709.56;;;19.93;58.05
43824;BME280;29470;53.550;9.926;2023-07-08T02:23:18;101721.56;;;19.69;59.10
43824;BME280;29470;53.550;9.926;2023-07-08T02:28:21;101710.31;;;19.72;59.04
43824;BME280;29470;53.550;9.926;2023-07-08T02:33:24;101706.25;;;19.79;58.88
43824;BME280;29470;53.550;9.926;2023-07-08T02:38:36;101704.75;;;19.84;59.01
43824;BME280;29470;53.550;9.926;2023-07-08T02:43:39;101710.59;;;19.78;58.91
43824;BME280;29470;53.550;9.926;2023-07-08T02:48:42;101715.25;;;19.84;58.46
43824;BME280;29470;53.550;9.926;2023-07-08T02:53:48;101714.22;;;19.98;58.53
43824;BME280;29470;53.550;9.926;2023-07-08T02:58:52;101718.91;;;19.87;59.13
43824;BME280;29470;53.550;9.926;2023-07-08T03:03:55;101719.53;;;19.64;59.28
43824;BME280;29470;53.550;9.926;2023-07-08T03:09:03;101714.28;;;19.64;59.27
43824;BME280;29470;53.550;9.926;2023-07-08T03:14:06;101715.75;;;19.57;59.81
43824;BME280;29470;53.550;9.926;2023-07-08T03:19:10;101713.25;;;19.60;59.48
43824;BME280;29470;53.550;9.926;2023-07-08T03:24:18;101714.16;;;19.61;59.67
43824;BME280;29470;53.550;9.926;2023-07-08T03:29:21;101715.41;;;19.87;58.44
43824;BME280;29470;53.550;9.926;2023-07-08T03:34:24;101715.69;;;19.75;58.87
43824;BME280;29470;53.550;9.926;2023-07-08T03:39:30;101716.63;;;19.76;58.77
43824;BME280;29470;53.550;9.926;2023-07-08T03:44:34;101720.81;;;19.72;58.62
43824;BME280;29470;53.550;9.926;2023-07-08T03:49:37;101708.13;;;19.81;58.16
43824;BME280;29470;53.550;9.926;2023-07-08T03:54:41;101718.50;;;20.16;57.15
43824;BME280;29470;53.550;9.926;2023-07-08T03:59:44;101728.09;;;19.60;58.88
43824;BME280;29470;53.550;9.926;2023-07-08T04:04:47;101712.56;;;20.00;57.83
43824;BME280;29470;53.550;9.926;2023-07-08T04:09:53;101714.09;;;20.15;57.74
43824;BME280;29470;53.550;9.926;2023-07-08T04:14:56;101719.78;;;20.06;56.87
43824;BME280;29470;53.550;9.926;2023-07-08T04:19:59;101721.75;;;20.30;56.69
43824;BME280;29470;53.550;9.926;2023-07-08T04:25:07;101708.56;;;20.28;56.62
43824;BME280;29470;53.550;9.926;2023-07-08T04:30:20;101720.09;;;20.32;56.06
43824;BME280;29470;53.550;9.926;2023-07-08T04:35:24;101717.63;;;20.56;55.37
43824;BME280;29470;53.550;9.926;2023-07-08T04:40:28;101711.88;;;20.24;55.82
43824;BME280;29470;53.550;9.926;2023-07-08T04:45:30;101713.25;;;20.16;56.14
43824;BME280;29470;53.550;9.926;2023-07-08T04:50:33;101716.50;;;20.30;55.50
43824;BME280;29470;53.550;9.926;2023-07-08T04:55:47;101707.59;;;20.87;53.93
43824;BME280;29470;53.550;9.926;2023-07-08T05:00:51;101713.81;;;20.89;54.35
43824;BME280;29470;53.550;9.926;2023-07-08T05:05:53;101709.72;;;20.76;53.74
43824;BME280;29470;53.550;9.926;2023-07-08T05:10:58;101701.75;;;20.94;54.13
43824;BME280;29470;53.550;9.926;2023-07-08T05:16:01;101697.97;;;21.09;53.14
43824;BME280;29470;53.550;9.926;2023-07-08T05:21:04;101698.81;;;21.08;53.30
43824;BME280;29470;53.550;9.926;2023-07-08T05:26:08;101707.66;;;21.10;53.26
43824;BME280;29470;53.550;9.926;2023-07-08T05:31:11;101709.56;;;21.58;51.97
43824;BME280;29470;53.550;9.926;2023-07-08T05:36:14;101704.72;;;21.67;51.61
43824;BME280;29470;53.550;9.926;2023-07-08T05:41:19;101700.75;;;21.57;51.63
43824;BME280;29470;53.550;9.926;2023-07-08T05:46:21;101696.50;;;21.82;51.09
43824;BME280;29470;53.550;9.926;2023-07-08T05:51:24;101705.38;;;22.08;49.88
43824;BME280;29470;53.550;9.926;2023-07-08T05:56:28;101704.59;;;22.11;49.54
43824;BME280;29470;53.550;9.926;2023-07-08T06:01:32;101695.41;;;22.24;49.50
43824;BME280;29470;53.550;9.926;2023-07-08T06:06:35;101690.19;;;22.50;48.80
43824;BME280;29470;53.550;9.926;2023-07-08T06:11:39;101692.53;;;23.20;47.79
43824;BME280;29470;53.550;9.926;2023-07-08T06:16:42;101688.41;;;23.85;47.10
43824;BME280;29470;53.550;9.926;2023-07-08T06:21:45;101693.44;;;24.06;45.65
43824;BME280;29470;53.550;9.926;2023-07-08T06:26:49;101682.19;;;24.45;44.90
43824;BME280;29470;53.550;9.926;2023-07-08T06:31:55;101683.91;;;24.45;45.07
43824;BME280;29470;53.550;9.926;2023-07-08T06:36:58;101692.00;;;24.17;45.30
43824;BME280;29470;53.550;9.926;2023-07-08T06:42:03;101686.72;;;24.51;44.56
43824;BME280;29470;53.550;9.926;2023-07-08T06:47:07;101679.81;;;25.26;43.34
43824;BME280;29470;53.550;9.926;2023-07-08T06:52:10;101685.59;;;25.45;43.04
43824;BME280;29470;53.550;9.926;2023-07-08T06:57:16;101688.06;;;25.79;42.93
43824;BME280;29470;53.550;9.926;2023-07-08T07:02:22;101689.38;;;25.99;42.55
43824;BME280;29470;53.550;9.926;2023-07-08T07:07:25;101682.91;;;26.28;41.52
43824;BME280;29470;53.550;9.926;2023-07-08T07:12:30;101673.44;;;26.91;40.64
43824;BME280;29470;53.550;9.926;2023-07-08T07:17:33;101673.50;;;28.24;38.43
43824;BME280;29470;53.550;9.926;2023-07-08T07:22:37;101669.72;;;28.94;36.77
43824;BME280;29470;53.550;9.926;2023-07-08T07:27:41;101673.50;;;29.31;36.60
43824;BME280;29470;53.550;9.926;2023-07-08T07:32:44;101658.84;;;30.54;34.35
43824;BME280;29470;53.550;9.926;2023-07-08T07:37:48;101653.97;;;32.28;32.12
43824;BME280;29470;53.550;9.926;2023-07-08T07:42:52;101650.47;;;35.55;27.96
43824;BME280;29470;53.550;9.926;2023-07-08T07:47:55;101652.88;;;37.50;25.95
43824;BME280;29470;53.550;9.926;2023-07-08T07:52:58;101649.13;;;38.68;24.34
43824;BME280;29470;53.550;9.926;2023-07-08T07:58:02;101645.28;;;42.21;21.34
43824;BME280;29470;53.550;9.926;2023-07-08T08:03:06;101650.94;;;42.16;20.89
43824;BME280;29470;53.550;9.926;2023-07-08T08:08:09;101648.13;;;40.17;22.50
43824;BME280;29470;53.550;9.926;2023-07-08T08:13:13;101651.56;;;40.20;22.60
43824;BME280;29470;53.550;9.926;2023-07-08T08:18:16;101640.63;;;40.87;21.36
43824;BME280;29470;53.550;9.926;2023-07-08T08:23:19;101649.41;;;38.86;23.18
43824;BME280;29470;53.550;9.926;2023-07-08T08:28:23;101648.69;;;37.70;23.95
43824;BME280;29470;53.550;9.926;2023-07-08T08:33:26;101652.56;;;36.60;25.65
43824;BME280;29470;53.550;9.926;2023-07-08T08:38:28;101658.41;;;34.06;28.14
43824;BME280;29470;53.550;9.926;2023-07-08T08:43:35;101655.91;;;33.17;29.74
43824;BME280;29470;53.550;9.926;2023-07-08T08:48:45;101656.97;;;29.97;34.18
43824;BME280;29470;53.550;9.926;2023-07-08T08:53:53;101658.25;;;29.05;35.81
43824;BME280;29470;53.550;9.926;2023-07-08T08:59:03;101643.75;;;28.69;36.75
43824;BME280;29470;53.550;9.926;2023-07-08T09:04:13;101644.31;;;28.32;37.21
43824;BME280;29470;53.550;9.926;2023-07-08T09:09:21;101630.84;;;29.21;36.40
43824;BME280;29470;53.550;9.926;2023-07-08T09:14:31;101629.22;;;29.50;36.20
43824;BME280;29470;53.550;9.926;2023-07-08T09:19:40;101638.84;;;29.21;36.63
43824;BME280;29470;53.550;9.926;2023-07-08T09:24:49;101641.44;;;29.17;35.91
43824;BME280;29470;53.550;9.926;2023-07-08T09:29:54;101636.78;;;28.80;36.83
43824;BME280;29470;53.550;9.926;2023-07-08T09:35:04;101631.75;;;29.27;36.98
43824;BME280;29470;53.550;9.926;2023-07-08T09:40:15;101635.13;;;28.98;36.47
43824;BME280;29470;53.550;9.926;2023-07-08T09:45:23;101627.94;;;28.83;36.69
43824;BME280;29470;53.550;9.926;2023-07-08T09:50:28;101629.72;;;28.85;36.70
43824;BME280;29470;53.550;9.926;2023-07-08T09:55:33;101629.25;;;29.56;35.70
43824;BME280;29470;53.550;9.926;2023-07-08T10:00:41;101639.22;;;29.99;34.68
43824;BME280;29470;53.550;9.926;2023-07-08T10:05:46;101621.00;;;29.09;36.32
43824;BME280;29470;53.550;9.926;2023-07-08T10:10:57;101617.69;;;29.48;35.52
43824;BME280;29470;53.550;9.926;2023-07-08T10:16:12;101624.44;;;28.94;36.39
43824;BME280;29470;53.550;9.926;2023-07-08T10:21:27;101615.00;;;29.48;35.74
43824;BME280;29470;53.550;9.926;2023-07-08T10:26:33;101610.72;;;29.86;35.07
43824;BME280;29470;53.550;9.926;2023-07-08T10:31:42;101609.03;;;30.20;34.91
43824;BME280;29470;53.550;9.926;2023-07-08T10:36:51;101605.53;;;30.62;34.27
43824;BME280;29470;53.550;9.926;2023-07-08T10:42:02;101615.06;;;29.63;35.52
43824;BME280;29470;53.550;9.926;2023-07-08T10:47:22;101602.78;;;30.01;34.32
43824;BME280;29470;53.550;9.926;2023-07-08T10:52:46;101597.47;;;30.29;34.22
43824;BME280;29470;53.550;9.926;2023-07-08T10:58:13;101602.81;;;30.45;33.67
43824;BME280;29470;53.550;9.926;2023-07-08T11:03:55;101593.94;;;30.64;33.70
43824;BME280;29470;53.550;9.926;2023-07-08T11:09:04;101601.84;;;29.91;34.43
43824;BME280;29470;53.550;9.926;2023-07-08T11:14:11;101592.13;;;30.12;34.15
43824;BME280;29470;53.550;9.926;2023-07-08T11:19:17;101585.03;;;30.45;34.52
43824;BME280;29470;53.550;9.926;2023-07-08T11:24:25;101592.13;;;30.82;32.17
43824;BME280;29470;53.550;9.926;2023-07-08T11:29:36;101593.03;;;30.75;33.49
43824;BME280;29470;53.550;9.926;2023-07-08T11:34:41;101592.06;;;31.18;32.82
43824;BME280;29470;53.550;9.926;2023-07-08T11:39:46;101587.69;;;30.26;33.29
43824;BME280;29470;53.550;9.926;2023-07-08T11:44:51;101586.81;;;30.52;33.09
43824;BME280;29470;53.550;9.926;2023-07-08T11:49:56;101572.56;;;30.52;33.11
43824;BME280;29470;53.550;9.926;2023-07-08T11:55:08;101573.47;;;30.01;33.54
43824;BME280;29470;53.550;9.926;2023-07-08T12:00:17;101568.13;;;30.60;33.11
43824;BME280;29470;53.550;9.926;2023-07-08T12:05:35;101569.00;;;30.17;31.80
43824;BME280;29470;53.550;9.926;2023-07-08T12:10:40;101555.69;;;30.73;32.00
43824;BME280;29470;53.550;9.926;2023-07-08T12:15:45;101563.69;;;30.17;32.98
43824;BME280;29470;53.550;9.926;2023-07-08T12:20:53;101560.13;;;30.74;33.22
43824;BME280;29470;53.550;9.926;2023-07-08T12:25:57;101561.88;;;30.55;31.94
43824;BME280;29470;53.550;9.926;2023-07-08T12:31:00;101554.78;;;30.66;31.83
43824;BME280;29470;53.550;9.926;2023-07-08T12:36:05;101545.88;;;30.78;32.05
43824;BME280;29470;53.550;9.926;2023-07-08T12:41:10;101550.25;;;31.03;31.53
43824;BME280;29470;53.550;9.926;2023-07-08T12:46:15;101539.53;;;31.07;31.23
43824;BME280;29470;53.550;9.926;2023-07-08T12:51:21;101537.72;;;31.26;30.16
43824;BME280;29470;53.550;9.926;2023-07-08T12:56:25;101539.56;;;31.03;29.94
43824;BME280;29470;53.550;9.926;2023-07-08T13:01:30;101536.13;;;30.68;30.92
43824;BME280;29470;53.550;9.926;2023-07-08T13:06:37;101536.88;;;31.12;30.88
43824;BME280;29470;53.550;9.926;2023-07-08T13:11:42;101526.16;;;31.24;31.26
43824;BME280;29470;53.550;9.926;2023-07-08T13:16:45;101525.28;;;31.16;30.13
43824;BME280;29470;53.550;9.926;2023-07-08T13:21:50;101520.69;;;31.44;30.56
43824;BME280;29470;53.550;9.926;2023-07-08T13:26:55;101528.91;;;30.96;30.08
43824;BME280;29470;53.550;9.926;2023-07-08T13:32:05;101507.16;;;31.80;30.04
43824;BME280;29470;53.550;9.926;2023-07-08T13:37:12;101517.06;;;31.58;29.34
43824;BME280;29470;53.550;9.926;2023-07-08T13:42:15;101513.28;;;31.92;29.52
43824;BME280;29470;53.550;9.926;2023-07-08T13:47:21;101501.03;;;31.59;28.91
43824;BME280;29470;53.550;9.926;2023-07-08T13:52:25;101503.50;;;31.91;29.23
43824;BME280;29470;53.550;9.926;2023-07-08T13:57:32;101501.16;;;31.33;29.22
43824;BME280;29470;53.550;9.926;2023-07-08T14:02:38;101507.03;;;31.97;28.56
43824;BME280;29470;53.550;9.926;2023-07-08T14:07:43;101505.88;;;32.25;27.82
43824;BME280;29470;53.550;9.926;2023-07-08T14:12:46;101507.16;;;31.72;29.21
43824;BME280;29470;53.550;9.926;2023-07-08T14:17:49;101506.47;;;31.44;29.49
43824;BME280;29470;53.550;9.926;2023-07-08T14:22:54;101495.69;;;31.58;29.12
43824;BME280;29470;53.550;9.926;2023-07-08T14:27:57;101486.84;;;31.47;29.07
43824;BME280;29470;53.550;9.926;2023-07-08T14:32:59;101487.69;;;31.53;28.72
43824;BME280;29470;53.550;9.926;2023-07-08T14:38:07;101486.78;;;31.56;29.26
43824;BME280;29470;53.550;9.926;2023-07-08T14:43:15;101480.88;;;32.32;28.47
43824;BME280;29470;53.550;9.926;2023-07-08T14:48:21;101478.16;;;32.35;28.53
43824;BME280;29470;53.550;9.926;2023-07-08T14:53:29;101471.53;;;31.78;29.12
43824;BME280;29470;53.550;9.926;2023-07-08T14:58:33;101473.53;;;31.39;29.46
43824;BME280;29470;53.550;9.926;2023-07-08T15:03:36;101482.78;;;32.14;28.96
43824;BME280;29470;53.550;9.926;2023-07-08T15:08:40;101474.34;;;31.50;28.71
43824;BME280;29470;53.550;9.926;2023-07-08T15:13:44;101480.69;;;31.34;28.91
43824;BME280;29470;53.550;9.926;2023-07-08T15:18:47;101473.03;;;32.07;28.19
43824;BME280;29470;53.550;9.926;2023-07-08T15:23:52;101477.19;;;32.42;28.27
43824;BME280;29470;53.550;9.926;2023-07-08T15:28:55;101476.72;;;31.95;28.65
43824;BME280;29470;53.550;9.926;2023-07-08T15:33:58;101473.25;;;31.82;28.99
43824;BME280;29470;53.550;9.926;2023-07-08T15:39:02;101460.91;;;31.63;29.32
43824;BME280;29470;53.550;9.926;2023-07-08T15:44:08;101469.47;;;32.10;28.57
43824;BME280;29470;53.550;9.926;2023-07-08T15:49:14;101471.06;;;32.32;28.30
43824;BME280;29470;53.550;9.926;2023-07-08T15:54:19;101463.38;;;31.92;28.23
43824;BME280;29470;53.550;9.926;2023-07-08T15:59:26;101460.63;;;32.00;29.19
43824;BME280;29470;53.550;9.926;2023-07-08T16:04:32;101453.50;;;31.99;28.84
43824;BME280;29470;53.550;9.926;2023-07-08T16:09:37;101451.69;;;32.02;29.11
43824;BME280;29470;53.550;9.926;2023-07-08T16:14:40;101451.06;;;31.66;29.04
43824;BME280;29470;53.550;9.926;2023-07-08T16:19:43;101448.41;;;31.65;29.28
43824;BME280;29470;53.550;9.926;2023-07-08T16:24:47;101446.53;;;31.81;28.94
43824;BME280;29470;53.550;9.926;2023-07-08T16:29:50;101446.72;;;31.54;29.41
43824;BME280;29470;53.550;9.926;2023-07-08T16:34:53;101454.84;;;31.31;29.70
43824;BME280;29470;53.550;9.926;2023-07-08T16:39:57;101453.91;;;31.41;34.45
43824;BME280;29470;53.550;9.926;2023-07-08T16:45:00;101462.03;;;31.27;36.12
43824;BME280;29470;53.550;9.926;2023-07-08T16:50:04;101464.91;;;30.71;37.95
43824;BME280;29470;53.550;9.926;2023-07-08T16:55:13;101462.25;;;30.62;37.59
43824;BME280;29470;53.550;9.926;2023-07-08T17:00:19;101461.34;;;30.57;37.91
43824;BME280;29470;53.550;9.926;2023-07-08T17:05:24;101461.38;;;30.49;38.64
43824;BME280;29470;53.550;9.926;2023-07-08T17:10:29;101467.53;;;30.82;38.10
43824;BME280;29470;53.550;9.926;2023-07-08T17:15:32;101469.38;;;30.46;38.04
43824;BME280;29470;53.550;9.926;2023-07-08T17:20:37;101474.72;;;30.32;38.58
43824;BME280;29470;53.550;9.926;2023-07-08T17:25:42;101477.41;;;30.20;38.75
43824;BME280;29470;53.550;9.926;2023-07-08T17:30:48;101475.63;;;29.95;38.52
43824;BME280;29470;53.550;9.926;2023-07-08T17:35:52;101470.28;;;29.95;38.30
43824;BME280;29470;53.550;9.926;2023-07-08T17:40:57;101468.53;;;29.80;38.29
43824;BME280;29470;53.550;9.926;2023-07-08T17:46:02;101467.56;;;29.46;39.32
43824;BME280;29470;53.550;9.926;2023-07-08T17:51:07;101468.47;;;29.56;38.46
43824;BME280;29470;53.550;9.926;2023-07-08T17:56:17;101468.34;;;29.20;38.48
43824;BME280;29470;53.550;9.926;2023-07-08T18:01:22;101463.00;;;29.12;38.50
43824;BME280;29470;53.550;9.926;2023-07-08T18:06:25;101469.13;;;28.92;39.38
43824;BME280;29470;53.550;9.926;2023-07-08T18:11:30;101475.41;;;29.02;38.66
43824;BME280;29470;53.550;9.926;2023-07-08T18:16:37;101476.19;;;28.81;38.90
43824;BME280;29470;53.550;9.926;2023-07-08T18:21:40;101473.38;;;28.62;39.31
43824;BME280;29470;53.550;9.926;2023-07-08T18:26:45;101484.88;;;28.55;39.60
43824;BME280;29470;53.550;9.926;2023-07-08T18:31:47;101479.13;;;28.01;39.89
43824;BME280;29470;53.550;9.926;2023-07-08T18:36:51;101481.66;;;27.88;39.89
43824;BME280;29470;53.550;9.926;2023-07-08T18:41:55;101486.31;;;28.10;39.89
43824;BME280;29470;53.550;9.926;2023-07-08T18:46:58;101488.72;;;27.82;40.46
43824;BME280;29470;53.550;9.926;2023-07-08T18:52:02;101486.00;;;27.80;40.30
43824;BME280;29470;53.550;9.926;2023-07-08T18:57:09;101488.66;;;27.77;41.12
43824;BME280;29470;53.550;9.926;2023-07-08T19:02:30;101497.03;;;27.34;41.43
43824;BME280;29470;53.550;9.926;2023-07-08T19:07:34;101498.84;;;27.37;41.37
43824;BME280;29470;53.550;9.926;2023-07-08T19:12:39;101504.63;;;27.04;42.10
43824;BME280;29470;53.550;9.926;2023-07-08T19:17:42;101507.28;;;27.06;42.05
43824;BME280;29470;53.550;9.926;2023-07-08T19:22:46;101509.16;;;26.53;42.63
43824;BME280;29470;53.550;9.926;2023-07-08T19:27:52;101519.41;;;26.30;42.95
43824;BME280;29470;53.550;9.926;2023-07-08T19:32:57;101516.28;;;26.56;42.45
43824;BME280;29470;53.550;9.926;2023-07-08T19:38:00;101507.88;;;26.26;42.66
43824;BME280;29470;53.550;9.926;2023-07-08T19:43:05;101515.84;;;26.26;43.13
43824;BME280;29470;53.550;9.926;2023-07-08T19:48:11;101529.50;;;26.00;43.25
43824;BME280;29470;53.550;9.926;2023-07-08T19:53:14;101535.78;;;26.07;43.14
43824;BME280;29470;53.550;9.926;2023-07-08T19:58:18;101530.97;;;25.84;43.72
43824;BME280;29470;53.550;9.926;2023-07-08T20:03:21;101529.78;;;25.68;43.84
43824;BME280;29470;53.550;9.926;2023-07-08T20:08:28;101540.06;;;25.51;44.57
43824;BME280;29470;53.550;9.926;2023-07-08T20:13:33;101544.06;;;25.77;44.14
43824;BME280;29470;53.550;9.926;2023-07-08T20:18:36;101546.25;;;25.52;44.52
43824;BME280;29470;53.550;9.926;2023-07-08T20:23:39;101544.84;;;25.71;44.54
43824;BME280;29470;53.550;9.926;2023-07-08T20:28:44;101560.47;;;25.57;44.89
43824;BME280;29470;53.550;9.926;2023-07-08T20:33:48;101560.22;;;25.44;45.32
43824;BME280;29470;53.550;9.926;2023-07-08T20:38:51;101555.63;;;25.37;45.61
43824;BME280;29470;53.550;9.926;2023-07-08T20:43:55;101564.22;;;25.27;46.02
43824;BME280;29470;53.550;9.926;2023-07-08T20:48:59;101562.03;;;25.07;46.45
43824;BME280;29470;53.550;9.926;2023-07-08T20:54:04;101572.88;;;25.20;46.42
43824;BME280;29470;53.550;9.926;2023-07-08T20:59:14;101574.72;;;25.22;46.53
43824;BME280;29470;53.550;9.926;2023-07-08T21:04:17;101579.13;;;25.22;46.56
43824;BME280;29470;53.550;9.926;2023-07-08T21:09:20;101582.75;;;24.87;47.47
43824;BME280;29470;53.550;9.926;2023-07-08T21:14:24;101587.41;;;24.27;49.29
43824;BME280;29470;53.550;9.926;2023-07-08T21:19:27;101590.69;;;24.87;47.85
43824;BME280;29470;53.550;9.926;2023-07-08T21:24:30;101587.53;;;24.67;48.95
43824;BME280;29470;53.550;9.926;2023-07-08T21:29:34;101593.63;;;24.29;49.66
43824;BME280;29470;53.550;9.926;2023-07-08T21:34:37;101593.94;;;24.41;49.66
43824;BME280;29470;53.550;9.926;2023-07-08T21:39:40;101603.88;;;24.17;50.16
43824;BME280;29470;53.550;9.926;2023-07-08T21:44:48;101600.44;;;24.19;50.39
43824;BME280;29470;53.550;9.926;2023-07-08T21:49:52;101593.69;;;24.31;50.51
43824;BME280;29470;53.550;9.926;2023-07-08T21:54:54;101588.78;;;24.46;49.67
43824;BME280;29470;53.550;9.926;2023-07-08T21:59:58;101594.22;;;24.17;50.84
43824;BME280;29470;53.550;9.926;2023-07-08T22:05:02;101599.09;;;24.02;51.26
43824;BME280;29470;53.550;9.926;2023-07-08T22:10:07;101597.31;;;24.02;51.36
43824;BME280;29470;53.550;9.926;2023-07-08T22:15:19;101595.88;;;23.81;52.11
43824;BME280;29470;53.550;9.926;2023-07-08T22:20:25;101596.00;;;23.88;51.70
43824;BME280;29470;53.550;9.926;2023-07-08T22:25:30;101598.28;;;23.74;52.52
43824;BME280;29470;53.550;9.926;2023-07-08T22:30:34;101594.06;;;23.80;52.02
43824;BME280;29470;53.550;9.926;2023-07-08T22:35:37;101605.75;;;23.58;52.99
43824;BME280;29470;53.550;9.926;2023-07-08T22:40:42;101600.06;;;23.75;52.86
43824;BME280;29470;53.550;9.926;2023-07-08T22:45:47;101604.09;;;23.62;53.05
43824;BME280;29470;53.550;9.926;2023-07-08T22:50:52;101595.38;;;23.64;53.05
43824;BME280;29470;53.550;9.926;2023-07-08T22:56:04;101597.63;;;23.52;53.79
43824;BME280;29470;53.550;9.926;2023-07-08T23:01:08;101605.19;;;23.39;53.63
43824;BME280;29470;53.550;9.926;2023-07-08T23:06:11;101594.59;;;23.38;53.66
43824;BME280;29470;53.550;9.926;2023-07-08T23:11:15;101595.84;;;23.51;54.09
43824;BME280;29470;53.550;9.926;2023-07-08T23:16:30;101600.47;;;23.58;53.50
43824;BME280;29470;53.550;9.926;2023-07-08T23:21:33;101610.66;;;23.46;54.05
43824;BME280;29470;53.550;9.926;2023-07-08T23:26:38;101609.81;;;23.47;54.12
43824;BME280;29470;53.550;9.926;2023-07-08T23:31:43;101609.59;;;23.39;54.05
43824;BME280;29470;53.550;9.926;2023-07-08T23:36:47;101608.16;;;23.21;54.27
43824;BME280;29470;53.550;9.926;2023-07-08T23:41:51;101612.44;;;23.47;53.40
43824;BME280;29470;53.550;9.926;2023-07-08T23:46:59;101612.19;;;23.10;54.50
43824;BME280;29470;53.550;9.926;2023-07-08T23:52:03;101602.88;;;23.21;54.39
43824;BME280;29470;53.550;9.926;2023-07-08T23:57:12;101604.88;;;23.01;54.39
